Terminal Aerodrome Forecast
Issued by NWS

Current Version | Previous Version | Text Only | Print | Product List | Glossary Off
Versions: 1 2 3 4 5 6 7 8 9 10 11 12 13 14 15 16 17 18 19 20 21 22 23 24 25 26 27 28 29

000
FTUS41 KILN 211133
TAFLUK
TAF
KLUK 211133Z 2112/2212 22003KT P6SM BKN070
     FM211400 24008KT P6SM FEW060
     FM211800 25009KT P6SM SCT070
     FM212300 22004KT P6SM SCT050
     FM220500 VRB02KT P6SM SCT120=

USA.gov is the U.S. government's official web portal to all federal, state and local government web resources and services.